sensor_id;sensor_type;location;lat;lon;timestamp;P1;durP1;ratioP1;P2;durP2;ratioP2
64502;SDS011;50971;51.940;21.258;2024-01-15T00:00:36;7.50;;;3.50;;
64502;SDS011;50971;51.940;21.258;2024-01-15T00:10:38;4.90;;;3.20;;
64502;SDS011;50971;51.940;21.258;2024-01-15T00:20:42;7.40;;;4.30;;
64502;SDS011;50971;51.940;21.258;2024-01-15T00:30:44;5.40;;;3.40;;
64502;SDS011;50971;51.940;21.258;2024-01-15T00:40:46;5.40;;;3.40;;
64502;SDS011;50971;51.940;21.258;2024-01-15T00:50:47;6.80;;;3.50;;
64502;SDS011;50971;51.940;21.258;2024-01-15T01:00:49;9.70;;;5.10;;
64502;SDS011;50971;51.940;21.258;2024-01-15T01:10:51;9.50;;;4.30;;
64502;SDS011;50971;51.940;21.258;2024-01-15T01:20:53;7.40;;;4.30;;
64502;SDS011;50971;51.940;21.258;2024-01-15T01:30:54;7.40;;;4.50;;
64502;SDS011;50971;51.940;21.258;2024-01-15T01:40:56;6.30;;;3.80;;
64502;SDS011;50971;51.940;21.258;2024-01-15T01:50:59;7.80;;;4.60;;
64502;SDS011;50971;51.940;21.258;2024-01-15T02:01:03;9.90;;;6.00;;
64502;SDS011;50971;51.940;21.258;2024-01-15T02:11:06;7.50;;;4.00;;
64502;SDS011;50971;51.940;21.258;2024-01-15T02:21:09;14.50;;;5.30;;
64502;SDS011;50971;51.940;21.258;2024-01-15T02:31:11;12.20;;;5.30;;
64502;SDS011;50971;51.940;21.258;2024-01-15T02:41:13;10.70;;;5.00;;
64502;SDS011;50971;51.940;21.258;2024-01-15T02:51:15;10.90;;;5.20;;
64502;SDS011;50971;51.940;21.258;2024-01-15T03:01:20;8.00;;;4.60;;
64502;SDS011;50971;51.940;21.258;2024-01-15T03:11:23;10.00;;;5.90;;
64502;SDS011;50971;51.940;21.258;2024-01-15T03:21:25;10.00;;;5.50;;
64502;SDS011;50971;51.940;21.258;2024-01-15T03:31:27;7.60;;;3.90;;
64502;SDS011;50971;51.940;21.258;2024-01-15T03:41:29;11.00;;;4.50;;
64502;SDS011;50971;51.940;21.258;2024-01-15T03:51:31;9.80;;;4.80;;
64502;SDS011;50971;51.940;21.258;2024-01-15T04:01:33;11.90;;;6.00;;
64502;SDS011;50971;51.940;21.258;2024-01-15T04:11:34;12.90;;;5.90;;
64502;SDS011;50971;51.940;21.258;2024-01-15T04:21:36;10.60;;;5.90;;
64502;SDS011;50971;51.940;21.258;2024-01-15T04:31:38;8.70;;;5.10;;
64502;SDS011;50971;51.940;21.258;2024-01-15T04:41:40;9.20;;;4.70;;
64502;SDS011;50971;51.940;21.258;2024-01-15T04:51:42;11.70;;;5.10;;
64502;SDS011;50971;51.940;21.258;2024-01-15T05:01:44;8.90;;;4.50;;
64502;SDS011;50971;51.940;21.258;2024-01-15T05:11:45;11.20;;;5.10;;
64502;SDS011;50971;51.940;21.258;2024-01-15T05:21:47;8.10;;;4.50;;
64502;SDS011;50971;51.940;21.258;2024-01-15T05:31:49;6.80;;;4.40;;
64502;SDS011;50971;51.940;21.258;2024-01-15T05:41:51;9.90;;;4.30;;
64502;SDS011;50971;51.940;21.258;2024-01-15T05:51:53;9.30;;;5.00;;
64502;SDS011;50971;51.940;21.258;2024-01-15T06:01:55;6.60;;;4.00;;
64502;SDS011;50971;51.940;21.258;2024-01-15T06:11:57;9.70;;;5.10;;
64502;SDS011;50971;51.940;21.258;2024-01-15T06:21:58;8.00;;;5.30;;
64502;SDS011;50971;51.940;21.258;2024-01-15T06:32:01;9.60;;;5.60;;
64502;SDS011;50971;51.940;21.258;2024-01-15T06:42:03;7.70;;;3.60;;
64502;SDS011;50971;51.940;21.258;2024-01-15T06:52:05;9.90;;;4.50;;
64502;SDS011;50971;51.940;21.258;2024-01-15T07:02:07;9.30;;;4.50;;
64502;SDS011;50971;51.940;21.258;2024-01-15T07:12:09;6.00;;;4.30;;
64502;SDS011;50971;51.940;21.258;2024-01-15T07:22:11;6.30;;;4.20;;
64502;SDS011;50971;51.940;21.258;2024-01-15T07:32:13;8.00;;;4.40;;
64502;SDS011;50971;51.940;21.258;2024-01-15T07:42:15;5.90;;;4.40;;
64502;SDS011;50971;51.940;21.258;2024-01-15T07:52:17;6.40;;;3.50;;
64502;SDS011;50971;51.940;21.258;2024-01-15T08:02:18;6.30;;;4.10;;
64502;SDS011;50971;51.940;21.258;2024-01-15T08:12:20;7.20;;;4.10;;
64502;SDS011;50971;51.940;21.258;2024-01-15T08:22:22;9.50;;;4.60;;
64502;SDS011;50971;51.940;21.258;2024-01-15T08:32:23;9.90;;;4.60;;
64502;SDS011;50971;51.940;21.258;2024-01-15T08:42:25;7.60;;;4.10;;
64502;SDS011;50971;51.940;21.258;2024-01-15T08:52:27;9.00;;;4.80;;
64502;SDS011;50971;51.940;21.258;2024-01-15T09:02:30;6.70;;;4.20;;
64502;SDS011;50971;51.940;21.258;2024-01-15T09:12:32;14.90;;;6.90;;
64502;SDS011;50971;51.940;21.258;2024-01-15T09:22:34;11.90;;;5.90;;
64502;SDS011;50971;51.940;21.258;2024-01-15T09:32:36;12.70;;;4.90;;
64502;SDS011;50971;51.940;21.258;2024-01-15T09:42:38;12.00;;;5.40;;
64502;SDS011;50971;51.940;21.258;2024-01-15T09:52:40;8.70;;;5.00;;
64502;SDS011;50971;51.940;21.258;2024-01-15T10:02:42;8.20;;;3.30;;
64502;SDS011;50971;51.940;21.258;2024-01-15T10:12:44;4.80;;;2.70;;
64502;SDS011;50971;51.940;21.258;2024-01-15T10:22:46;6.70;;;3.20;;
64502;SDS011;50971;51.940;21.258;2024-01-15T10:32:56;6.70;;;3.20;;
64502;SDS011;50971;51.940;21.258;2024-01-15T10:43:01;8.00;;;4.50;;
64502;SDS011;50971;51.940;21.258;2024-01-15T10:53:03;9.10;;;5.10;;
64502;SDS011;50971;51.940;21.258;2024-01-15T11:03:06;4.90;;;3.10;;
64502;SDS011;50971;51.940;21.258;2024-01-15T11:13:09;7.40;;;4.10;;
64502;SDS011;50971;51.940;21.258;2024-01-15T11:33:54;6.80;;;4.20;;
64502;SDS011;50971;51.940;21.258;2024-01-15T11:43:57;5.40;;;3.30;;
64502;SDS011;50971;51.940;21.258;2024-01-15T11:53:58;7.40;;;4.10;;
64502;SDS011;50971;51.940;21.258;2024-01-15T12:04:06;9.20;;;4.90;;
64502;SDS011;50971;51.940;21.258;2024-01-15T12:14:10;8.80;;;4.30;;
64502;SDS011;50971;51.940;21.258;2024-01-15T12:24:12;7.50;;;4.30;;
64502;SDS011;50971;51.940;21.258;2024-01-15T12:34:14;6.10;;;3.40;;
64502;SDS011;50971;51.940;21.258;2024-01-15T12:44:15;7.50;;;4.00;;
64502;SDS011;50971;51.940;21.258;2024-01-15T12:54:17;11.80;;;5.20;;
64502;SDS011;50971;51.940;21.258;2024-01-15T13:04:21;9.00;;;4.00;;
64502;SDS011;50971;51.940;21.258;2024-01-15T13:14:27;7.80;;;3.90;;
64502;SDS011;50971;51.940;21.258;2024-01-15T13:24:30;9.10;;;4.20;;
64502;SDS011;50971;51.940;21.258;2024-01-15T13:34:31;8.60;;;5.10;;
64502;SDS011;50971;51.940;21.258;2024-01-15T13:44:34;9.70;;;4.30;;
64502;SDS011;50971;51.940;21.258;2024-01-15T13:54:36;11.60;;;5.30;;
64502;SDS011;50971;51.940;21.258;2024-01-15T14:04:50;11.50;;;4.30;;
64502;SDS011;50971;51.940;21.258;2024-01-15T14:14:52;10.20;;;5.20;;
64502;SDS011;50971;51.940;21.258;2024-01-15T14:24:53;10.30;;;5.30;;
64502;SDS011;50971;51.940;21.258;2024-01-15T14:34:55;10.40;;;4.20;;
64502;SDS011;50971;51.940;21.258;2024-01-15T14:44:58;6.80;;;3.80;;
64502;SDS011;50971;51.940;21.258;2024-01-15T14:55:00;8.80;;;4.40;;
64502;SDS011;50971;51.940;21.258;2024-01-15T15:05:02;9.60;;;4.80;;
64502;SDS011;50971;51.940;21.258;2024-01-15T15:15:05;7.90;;;4.50;;
64502;SDS011;50971;51.940;21.258;2024-01-15T15:25:12;9.00;;;4.90;;
64502;SDS011;50971;51.940;21.258;2024-01-15T15:35:14;6.80;;;4.20;;
64502;SDS011;50971;51.940;21.258;2024-01-15T15:45:16;8.30;;;4.30;;
64502;SDS011;50971;51.940;21.258;2024-01-15T15:55:18;9.80;;;5.00;;
64502;SDS011;50971;51.940;21.258;2024-01-15T16:05:20;11.00;;;5.10;;
64502;SDS011;50971;51.940;21.258;2024-01-15T16:15:24;8.20;;;5.30;;
64502;SDS011;50971;51.940;21.258;2024-01-15T16:25:26;11.00;;;5.10;;
64502;SDS011;50971;51.940;21.258;2024-01-15T16:35:29;8.50;;;4.50;;
64502;SDS011;50971;51.940;21.258;2024-01-15T16:45:30;6.90;;;4.10;;
64502;SDS011;50971;51.940;21.258;2024-01-15T16:55:34;9.70;;;3.90;;
64502;SDS011;50971;51.940;21.258;2024-01-15T17:05:36;7.50;;;3.80;;
64502;SDS011;50971;51.940;21.258;2024-01-15T17:15:37;8.80;;;4.10;;
64502;SDS011;50971;51.940;21.258;2024-01-15T17:25:39;18.20;;;7.10;;
64502;SDS011;50971;51.940;21.258;2024-01-15T17:35:43;10.60;;;4.40;;
64502;SDS011;50971;51.940;21.258;2024-01-15T17:45:52;10.30;;;4.00;;
64502;SDS011;50971;51.940;21.258;2024-01-15T17:55:56;8.50;;;3.90;;
64502;SDS011;50971;51.940;21.258;2024-01-15T18:05:58;5.40;;;3.30;;
64502;SDS011;50971;51.940;21.258;2024-01-15T18:16:00;7.00;;;3.20;;
64502;SDS011;50971;51.940;21.258;2024-01-15T18:26:03;8.50;;;4.30;;
64502;SDS011;50971;51.940;21.258;2024-01-15T18:36:06;8.00;;;3.90;;
64502;SDS011;50971;51.940;21.258;2024-01-15T18:46:08;13.00;;;5.10;;
64502;SDS011;50971;51.940;21.258;2024-01-15T18:56:10;16.50;;;6.00;;
64502;SDS011;50971;51.940;21.258;2024-01-15T19:06:11;13.40;;;5.40;;
64502;SDS011;50971;51.940;21.258;2024-01-15T19:16:16;10.10;;;4.80;;
64502;SDS011;50971;51.940;21.258;2024-01-15T19:26:23;9.10;;;3.50;;
64502;SDS011;50971;51.940;21.258;2024-01-15T19:36:25;9.10;;;4.60;;
64502;SDS011;50971;51.940;21.258;2024-01-15T19:46:28;7.50;;;4.70;;
64502;SDS011;50971;51.940;21.258;2024-01-15T19:56:29;6.20;;;3.90;;
64502;SDS011;50971;51.940;21.258;2024-01-15T20:06:31;3.30;;;2.30;;
64502;SDS011;50971;51.940;21.258;2024-01-15T20:16:33;4.80;;;2.40;;
64502;SDS011;50971;51.940;21.258;2024-01-15T20:26:35;4.60;;;2.60;;
64502;SDS011;50971;51.940;21.258;2024-01-15T20:36:37;2.90;;;1.90;;
64502;SDS011;50971;51.940;21.258;2024-01-15T20:46:39;3.50;;;1.90;;
64502;SDS011;50971;51.940;21.258;2024-01-15T20:56:41;3.90;;;1.80;;
64502;SDS011;50971;51.940;21.258;2024-01-15T21:06:43;5.20;;;2.20;;
64502;SDS011;50971;51.940;21.258;2024-01-15T21:16:45;8.20;;;2.10;;
64502;SDS011;50971;51.940;21.258;2024-01-15T21:26:48;4.90;;;2.00;;
64502;SDS011;50971;51.940;21.258;2024-01-15T21:36:50;4.60;;;1.80;;
64502;SDS011;50971;51.940;21.258;2024-01-15T21:46:51;3.80;;;2.20;;
64502;SDS011;50971;51.940;21.258;2024-01-15T21:56:53;4.60;;;2.20;;
64502;SDS011;50971;51.940;21.258;2024-01-15T22:06:55;5.40;;;1.80;;
64502;SDS011;50971;51.940;21.258;2024-01-15T22:16:57;5.10;;;2.80;;
64502;SDS011;50971;51.940;21.258;2024-01-15T22:26:58;3.50;;;1.80;;
64502;SDS011;50971;51.940;21.258;2024-01-15T22:37:00;3.10;;;1.30;;
64502;SDS011;50971;51.940;21.258;2024-01-15T22:47:02;1.20;;;1.10;;
64502;SDS011;50971;51.940;21.258;2024-01-15T22:57:04;2.40;;;1.40;;
64502;SDS011;50971;51.940;21.258;2024-01-15T23:07:06;2.60;;;1.80;;
64502;SDS011;50971;51.940;21.258;2024-01-15T23:27:09;2.20;;;1.00;;
64502;SDS011;50971;51.940;21.258;2024-01-15T23:37:11;1.80;;;1.20;;
64502;SDS011;50971;51.940;21.258;2024-01-15T23:57:14;1.00;;;0.90;;
